Cruise inventory

Prince Madog PM4DW13

Cruise plan

Cruise Info. 
Ship name (ship code)Prince Madog (74PD)
Cruise identifierPM4DW13
Cruise period1978-07-31 — 1978-08-03
StatusCompleted
Port of departureMenai Bridge, United Kingdom
Port of returnMenai Bridge, United Kingdom
ObjectivesLiverpool Bay Front Survey.
Chief scientistSteven P R Czitrom Baus (University of Wales, Bangor School of Ocean Sciences)
Ocean/sea areas 
GeneralIrish Sea and St. George's Channel
Track chartsPrince Madog PM4DW13 cruise track — trk_livbaysurv.pdf (00 MB) 
Measurements 
Physical oceanography 
CTD stationsQuantity: number of stations = 73
Data held at BODC 
Series/Profiles 
73  CTD/STD cast
Vertical spatial coordinates
Salinity of the water column
Temperature of the water column
Vertical spatial coordinates
Salinity of the water column
Temperature of the water column

BODC idDate/TimeLocationDoc.
655661978-08-01 18:12 53° 49' 4" N  4° 7' 30" W  View metadata report for BODC series reference number 65566
655781978-08-01 19:00 53° 49' 33" N  4° 14' 16" W  View metadata report for BODC series reference number 65578
655911978-08-01 20:08 53° 49' 22" N  4° 20' 56" W  View metadata report for BODC series reference number 65591
656091978-08-01 21:04 53° 49' 12" N  4° 27' 10" W  View metadata report for BODC series reference number 65609
656101978-08-01 22:02 53° 53' 52" N  4° 26' 5" W  View metadata report for BODC series reference number 65610
656221978-08-01 22:52 53° 57' 25" N  4° 27' 21" W  View metadata report for BODC series reference number 65622
656341978-08-01 23:45 54° 0' 50" N  4° 27' 0" W  View metadata report for BODC series reference number 65634
656461978-08-02 00:38 54° 4' 58" N  4° 26' 24" W  View metadata report for BODC series reference number 65646
656581978-08-02 01:53 54° 4' 40" N  4° 20' 52" W  View metadata report for BODC series reference number 65658
656711978-08-02 02:42 54° 4' 58" N  4° 14' 38" W  View metadata report for BODC series reference number 65671
656831978-08-02 03:55 54° 4' 33" N  4° 6' 50" W  View metadata report for BODC series reference number 65683
656951978-08-02 04:45 54° 4' 33" N  3° 59' 38" W  View metadata report for BODC series reference number 65695
657021978-08-02 05:40 54° 4' 47" N  3° 53' 24" W  View metadata report for BODC series reference number 65702
657141978-08-02 06:21 54° 4' 47" N  3° 46' 55" W  View metadata report for BODC series reference number 65714
657261978-08-02 07:00 54° 4' 40" N  3° 39' 57" W  View metadata report for BODC series reference number 65726
657381978-08-02 07:42 54° 4' 55" N  3° 32' 45" W  View metadata report for BODC series reference number 65738
657511978-08-02 08:22 54° 4' 58" N  3° 27' 10" W  View metadata report for BODC series reference number 65751
657631978-08-02 09:00 54° 4' 40" N  3° 20' 34" W  View metadata report for BODC series reference number 65763
657751978-08-02 09:55 54° 0' 21" N  3° 19' 55" W  View metadata report for BODC series reference number 65775
657871978-08-02 10:27 53° 56' 52" N  3° 19' 37" W  View metadata report for BODC series reference number 65787
657991978-08-02 11:33 53° 56' 52" N  3° 26' 45" W  View metadata report for BODC series reference number 65799
658061978-08-02 12:09 53° 56' 45" N  3° 33' 21" W  View metadata report for BODC series reference number 65806
658181978-08-02 13:18 53° 56' 49" N  3° 40' 11" W  View metadata report for BODC series reference number 65818
658311978-08-02 13:50 53° 56' 56" N  3° 46' 44" W  View metadata report for BODC series reference number 65831
658431978-08-02 15:18 53° 57' 3" N  3° 53' 59" W  View metadata report for BODC series reference number 65843
658551978-08-02 15:52 53° 57' 10" N  4° 0' 3" W  View metadata report for BODC series reference number 65855
658671978-08-02 17:20 53° 57' 10" N  4° 7' 55" W  View metadata report for BODC series reference number 65867
658791978-08-02 18:02 53° 57' 28" N  4° 13' 26" W  View metadata report for BODC series reference number 65879
658801978-08-02 19:38 53° 56' 56" N  4° 21' 18" W  View metadata report for BODC series reference number 65880
658921978-08-02 20:25 53° 57' 14" N  4° 27' 18" W  View metadata report for BODC series reference number 65892
659111978-08-02 22:15 53° 53' 20" N  4° 26' 24" W  View metadata report for BODC series reference number 65911
659231978-08-02 23:03 53° 49' 22" N  4° 26' 31" W  View metadata report for BODC series reference number 65923
659351978-08-02 23:58 53° 48' 36" N  4° 20' 56" W  View metadata report for BODC series reference number 65935
659471978-08-03 00:55 53° 49' 1" N  4° 13' 40" W  View metadata report for BODC series reference number 65947
659591978-08-03 01:52 53° 49' 19" N  4° 7' 19" W  View metadata report for BODC series reference number 65959
659601978-08-03 02:50 53° 48' 39" N  3° 59' 56" W  View metadata report for BODC series reference number 65960
659721978-08-03 03:48 53° 48' 39" N  3° 53' 20" W  View metadata report for BODC series reference number 65972
659841978-08-03 04:36 53° 49' 8" N  3° 47' 13" W  View metadata report for BODC series reference number 65984
659961978-08-03 05:26 53° 48' 53" N  3° 40' 8" W  View metadata report for BODC series reference number 65996
660111978-08-03 06:05 53° 48' 39" N  3° 33' 10" W  View metadata report for BODC series reference number 66011
660231978-08-03 06:48 53° 48' 46" N  3° 26' 34" W  View metadata report for BODC series reference number 66023
660351978-08-03 07:25 53° 48' 53" N  3° 19' 19" W  View metadata report for BODC series reference number 66035
660471978-08-03 08:20 53° 49' 12" N  3° 26' 38" W  View metadata report for BODC series reference number 66047
660591978-08-03 09:06 53° 48' 39" N  3° 33' 10" W  View metadata report for BODC series reference number 66059
660601978-08-03 09:47 53° 48' 57" N  3° 39' 50" W  View metadata report for BODC series reference number 66060
660721978-08-03 11:00 53° 41' 27" N  3° 39' 21" W  View metadata report for BODC series reference number 66072
655541978-08-01 17:23 53° 49' 19" N  3° 59' 49" W  View metadata report for BODC series reference number 65554
654131978-08-01 06:20 53° 32' 42" N  4° 6' 10" W  View metadata report for BODC series reference number 65413
654251978-08-01 07:00 53° 32' 45" N  3° 59' 20" W  View metadata report for BODC series reference number 65425
654371978-08-01 07:38 53° 32' 34" N  3° 53' 5" W  View metadata report for BODC series reference number 65437
654491978-08-01 08:18 53° 32' 42" N  3° 46' 15" W  View metadata report for BODC series reference number 65449
654501978-08-01 09:02 53° 32' 56" N  3° 39' 46" W  View metadata report for BODC series reference number 65450
654621978-08-01 09:44 53° 32' 52" N  3° 33' 10" W  View metadata report for BODC series reference number 65462
654741978-08-01 10:26 53° 32' 42" N  3° 26' 13" W  View metadata report for BODC series reference number 65474
654861978-08-01 11:55 53° 41' 16" N  3° 19' 48" W  View metadata report for BODC series reference number 65486
654981978-08-01 13:03 53° 48' 46" N  3° 19' 4" W  View metadata report for BODC series reference number 65498
655051978-08-01 13:40 53° 49' 4" N  3° 26' 34" W  View metadata report for BODC series reference number 65505
655171978-08-01 14:10 53° 48' 46" N  3° 33' 25" W  View metadata report for BODC series reference number 65517
655291978-08-01 15:00 53° 49' 4" N  3° 40' 4" W  View metadata report for BODC series reference number 65529
655301978-08-01 15:50 53° 49' 12" N  3° 46' 58" W  View metadata report for BODC series reference number 65530
655421978-08-01 16:42 53° 49' 30" N  3° 53' 49" W  View metadata report for BODC series reference number 65542
652891978-07-31 15:28 53° 41' 2" N  3° 19' 37" W  View metadata report for BODC series reference number 65289
652901978-07-31 17:12 53° 41' 6" N  3° 26' 9" W  View metadata report for BODC series reference number 65290
653081978-07-31 17:55 53° 41' 16" N  3° 33' 18" W  View metadata report for BODC series reference number 65308
653211978-07-31 19:35 53° 40' 51" N  3° 40' 22" W  View metadata report for BODC series reference number 65321
653331978-07-31 20:18 53° 40' 55" N  3° 46' 58" W  View metadata report for BODC series reference number 65333
653451978-07-31 21:53 53° 41' 16" N  3° 53' 56" W  View metadata report for BODC series reference number 65345
653571978-07-31 22:34 53° 41' 9" N  4° 0' 21" W  View metadata report for BODC series reference number 65357
653691978-08-01 00:07 53° 40' 55" N  4° 6' 39" W  View metadata report for BODC series reference number 65369
653701978-08-01 00:53 53° 41' 6" N  4° 13' 44" W  View metadata report for BODC series reference number 65370
653821978-08-01 02:22 53° 41' 2" N  4° 20' 9" W  View metadata report for BODC series reference number 65382
653941978-08-01 03:10 53° 40' 58" N  4° 28' 1" W  View metadata report for BODC series reference number 65394
654011978-08-01 05:40 53° 32' 31" N  4° 14' 13" W  View metadata report for BODC series reference number 65401